Time;durP1;ratioP1;P1;durP2;ratioP2;P2;SDS_P1;SDS_P2;PMS_P1;PMS_P2;Temp;Humidity;BMP_temperature;BMP_pressure;BME280_temperature;BME280_humidity;BME280_pressure;Samples;Min_cycle;Max_cycle;Signal;HPM_P1;HPM_P2
2021/06/13 00:01:37;;;;;;;13.55;12.25;;;21.20;99.90;;;;;;5089833;28;20212;-75
2021/06/13 00:04:04;;;;;;;14.52;13.23;;;21.10;99.90;;;;;;5090322;28;20202;-76
2021/06/13 00:06:31;;;;;;;15.52;13.85;;;21.20;99.90;;;;;;5089535;28;20221;-76
2021/06/13 00:08:57;;;;;;;15.20;13.68;;;21.20;99.90;;;;;;5090106;28;20205;-76
2021/06/13 00:11:24;;;;;;;15.98;12.35;;;21.10;99.90;;;;;;5067843;28;20701;-76
2021/06/13 00:13:52;;;;;;;13.40;12.20;;;21.10;99.90;;;;;;5073582;28;20236;-76
2021/06/13 00:16:20;;;;;;;14.48;13.23;;;21.10;99.90;;;;;;5073968;28;20213;-76
2021/06/13 00:18:47;;;;;;;14.52;12.70;;;21.00;99.90;;;;;;5073636;28;20213;-76
2021/06/13 00:21:13;;;;;;;13.80;12.43;;;21.00;99.90;;;;;;5073557;28;20202;-74
2021/06/13 00:23:41;;;;;;;14.57;13.20;;;21.10;99.90;;;;;;5072934;28;20198;-74
2021/06/13 00:26:07;;;;;;;13.40;12.15;;;21.20;99.90;;;;;;5073370;28;20245;-74
2021/06/13 00:28:34;;;;;;;15.25;13.80;;;21.10;99.90;;;;;;5072736;28;20210;-77
2021/06/13 00:31:00;;;;;;;13.73;12.38;;;21.10;99.90;;;;;;5073264;28;20198;-77
2021/06/13 00:33:28;;;;;;;14.82;12.77;;;21.10;99.90;;;;;;5072796;28;20294;-76
2021/06/13 00:35:55;;;;;;;13.38;12.27;;;21.10;99.90;;;;;;5073056;28;20202;-76
2021/06/13 00:38:21;;;;;;;14.77;13.48;;;21.10;99.90;;;;;;5073277;28;20212;-76
2021/06/13 00:40:48;;;;;;;12.73;11.52;;;21.20;99.90;;;;;;5073127;28;20747;-76
2021/06/13 00:43:14;;;;;;;14.70;13.05;;;21.20;99.90;;;;;;5073423;28;20206;-76
2021/06/13 00:45:41;;;;;;;14.45;12.95;;;21.20;99.90;;;;;;5072286;28;20585;-75
2021/06/13 00:48:08;;;;;;;13.60;12.30;;;21.20;99.90;;;;;;5073139;28;20202;-74
2021/06/13 00:50:39;;;;;;;15.13;13.68;;;21.20;99.90;;;;;;5072427;28;20233;-73
2021/06/13 00:53:08;;;;;;;13.15;11.95;;;21.20;99.90;;;;;;5073043;28;20202;-73
2021/06/13 00:55:36;;;;;;;13.95;12.55;;;21.20;99.90;;;;;;5072847;28;20271;-73
2021/06/13 00:58:03;;;;;;;13.32;12.13;;;21.20;99.90;;;;;;5072844;28;20202;-74
2021/06/13 01:00:30;;;;;;;13.50;12.20;;;21.20;99.90;;;;;;5072313;28;20213;-75
2021/06/13 01:02:56;;;;;;;13.77;12.38;;;21.20;99.90;;;;;;5072762;28;20259;-75
2021/06/13 01:05:23;;;;;;;13.45;12.15;;;21.20;99.90;;;;;;5072408;28;20267;-75
2021/06/13 01:08:01;;;;;;;12.82;11.63;;;21.10;99.90;;;;;;5072757;28;20207;-75
2021/06/13 01:10:38;;;;;;;14.25;12.20;;;21.10;99.90;;;;;;5072356;28;20202;-75
2021/06/13 01:13:10;;;;;;;12.35;11.07;;;21.00;99.90;;;;;;5072549;28;20285;-76
2021/06/13 01:15:43;;;;;;;12.48;11.40;;;20.90;99.90;;;;;;5072550;28;20202;-75
2021/06/13 01:18:14;;;;;;;14.13;12.82;;;21.00;99.90;;;;;;5072409;28;20210;-75
2021/06/13 01:20:44;;;;;;;12.98;11.68;;;21.00;99.90;;;;;;5071915;28;20206;-75
2021/06/13 01:23:39;;;;;;;13.10;11.77;;;20.90;99.90;;;;;;5071930;28;20217;-74
2021/06/13 01:26:26;;;;;;;13.60;12.40;;;20.90;99.90;;;;;;5072497;28;20205;-75
2021/06/13 01:28:58;;;;;;;14.52;11.73;;;20.80;99.90;;;;;;5072202;28;20665;-75
2021/06/13 01:31:28;;;;;;;13.88;12.48;;;20.80;99.90;;;;;;5071832;28;20202;-75
2021/06/13 01:33:58;;;;;;;14.18;12.15;;;20.80;99.90;;;;;;5071917;28;20291;-75
2021/06/13 01:36:25;;;;;;;17.40;12.10;;;20.80;99.90;;;;;;5071831;28;20209;-75
2021/06/13 01:38:54;;;;;;;14.35;13.05;;;20.80;99.90;;;;;;5071888;28;20563;-75
2021/06/13 01:41:23;;;;;;;14.85;13.45;;;20.70;99.90;;;;;;5072020;28;20594;-75
2021/06/13 01:43:53;;;;;;;13.60;12.40;;;20.70;99.90;;;;;;5071604;28;20263;-75
2021/06/13 01:46:23;;;;;;;12.77;11.57;;;20.60;99.90;;;;;;5071764;28;20206;-75
2021/06/13 01:48:51;;;;;;;12.48;11.27;;;20.60;99.90;;;;;;5071646;28;20214;-74
2021/06/13 01:51:18;;;;;;;13.50;12.20;;;20.70;99.90;;;;;;5072410;28;20251;-75
2021/06/13 01:53:46;;;;;;;12.90;11.77;;;20.70;99.90;;;;;;5071558;28;20234;-75
2021/06/13 01:56:14;;;;;;;12.73;11.50;;;20.60;99.90;;;;;;5071717;28;20210;-75
2021/06/13 01:58:43;;;;;;;13.18;11.93;;;20.50;99.90;;;;;;5071605;28;20213;-74
2021/06/13 02:01:10;;;;;;;12.48;11.48;;;20.60;99.90;;;;;;5071813;28;20264;-74
2021/06/13 02:03:41;;;;;;;12.75;11.57;;;20.70;99.90;;;;;;5071269;28;20287;-73
2021/06/13 02:06:09;;;;;;;12.20;11.00;;;20.70;99.90;;;;;;5071470;28;20207;-74
2021/06/13 02:08:37;;;;;;;12.68;11.57;;;20.50;99.90;;;;;;5071158;28;20582;-74
2021/06/13 02:11:04;;;;;;;12.43;11.27;;;20.50;99.90;;;;;;5071374;28;20214;-74
2021/06/13 02:13:32;;;;;;;12.40;11.20;;;20.60;99.90;;;;;;5070734;28;20670;-74
2021/06/13 02:16:00;;;;;;;12.68;11.38;;;20.50;99.90;;;;;;5071028;28;20600;-74
2021/06/13 02:18:27;;;;;;;13.35;12.23;;;20.50;99.90;;;;;;5070822;28;20210;-74
2021/06/13 02:20:59;;;;;;;13.07;11.98;;;20.30;99.90;;;;;;5071387;28;20213;-74
2021/06/13 02:23:28;;;;;;;12.55;11.43;;;20.30;99.90;;;;;;5070749;28;20198;-75
2021/06/13 02:25:55;;;;;;;12.35;11.15;;;20.30;99.90;;;;;;5070896;28;21008;-74
2021/06/13 02:28:22;;;;;;;12.82;11.63;;;20.30;99.90;;;;;;5070396;28;20585;-74
2021/06/13 02:30:50;;;;;;;14.15;12.43;;;20.30;99.90;;;;;;5071366;28;20686;-75
2021/06/13 02:33:18;;;;;;;11.93;10.93;;;20.40;99.90;;;;;;5071163;28;20209;-75
2021/06/13 02:35:47;;;;;;;12.93;11.55;;;20.40;99.90;;;;;;5070351;28;20207;-75
2021/06/13 02:38:16;;;;;;;11.70;10.70;;;20.50;99.90;;;;;;5071189;28;20206;-75
2021/06/13 02:40:43;;;;;;;13.15;11.80;;;20.50;99.90;;;;;;5070408;28;20205;-75
2021/06/13 02:43:10;;;;;;;12.45;11.25;;;20.40;99.90;;;;;;5071256;28;20210;-75
2021/06/13 02:45:37;;;;;;;12.50;11.30;;;20.30;99.90;;;;;;5070636;28;20213;-75
2021/06/13 05:43:19;;;;;;;12.20;11.15;;;20.50;99.90;;;;;;5663238;22;20246;-75
2021/06/13 05:45:47;;;;;;;13.02;11.73;;;20.60;99.90;;;;;;5051321;28;20241;-75
2021/06/13 05:48:14;;;;;;;12.75;11.63;;;20.70;99.90;;;;;;5051262;28;20211;-76
2021/06/13 05:50:41;;;;;;;13.52;12.38;;;20.80;99.90;;;;;;5051599;28;20256;-76
2021/06/13 05:53:09;;;;;;;12.32;11.20;;;20.80;99.90;;;;;;5051464;28;20248;-76
2021/06/13 05:55:36;;;;;;;13.38;11.75;;;21.00;99.90;;;;;;5052026;28;20234;-76
2021/06/13 05:58:03;;;;;;;13.95;12.30;;;21.00;99.90;;;;;;5024727;28;20212;-75
2021/06/13 06:00:34;;;;;;;13.73;12.43;;;21.10;99.90;;;;;;5039555;28;20715;-78
2021/06/13 06:03:01;;;;;;;12.07;10.93;;;21.20;99.90;;;;;;5044194;28;20200;-78
2021/06/13 06:05:28;;;;;;;12.20;11.20;;;21.30;99.90;;;;;;5051582;28;20289;-78
2021/06/13 06:07:56;;;;;;;13.55;12.10;;;21.40;99.90;;;;;;5051726;28;20297;-76
2021/06/13 06:10:25;;;;;;;12.73;11.40;;;21.40;99.90;;;;;;5050266;28;20210;-78
2021/06/13 06:12:53;;;;;;;12.77;11.65;;;21.40;99.90;;;;;;5051487;28;20272;-77
2021/06/13 06:15:22;;;;;;;12.43;11.32;;;21.50;99.90;;;;;;5045524;28;20231;-77
2021/06/13 06:17:51;;;;;;;12.82;11.68;;;21.40;99.90;;;;;;5051268;28;20674;-78
2021/06/13 06:20:20;;;;;;;12.55;11.35;;;21.50;99.90;;;;;;5050699;28;20260;-76
2021/06/13 06:22:47;;;;;;;13.52;10.93;;;21.60;99.90;;;;;;5051178;28;20646;-77
2021/06/13 06:25:15;;;;;;;13.68;10.65;;;21.70;99.90;;;;;;5050542;28;20214;-76
2021/06/13 06:27:42;;;;;;;10.07;9.27;;;21.90;99.90;;;;;;5050922;28;20206;-78
2021/06/13 06:30:11;;;;;;;14.57;12.38;;;22.10;99.90;;;;;;5027871;28;20987;-80
2021/06/13 06:32:39;;;;;;;11.82;10.52;;;22.20;99.90;;;;;;5036166;28;20672;-78
2021/06/13 06:35:09;;;;;;;13.73;10.40;;;22.20;99.90;;;;;;5022336;28;20228;-78
2021/06/13 06:37:38;;;;;;;13.05;11.07;;;22.40;99.90;;;;;;5042509;28;20613;-79
2021/06/13 06:40:08;;;;;;;12.07;10.98;;;22.50;99.90;;;;;;5039733;28;20243;-79
2021/06/13 06:42:35;;;;;;;11.75;10.55;;;22.60;99.90;;;;;;5041659;28;20264;-79
2021/06/13 06:45:02;;;;;;;10.98;9.93;;;22.60;99.90;;;;;;5040289;28;20218;-79
2021/06/13 06:47:29;;;;;;;12.32;11.15;;;22.70;99.90;;;;;;5036886;28;20225;-78
2021/06/13 06:49:56;;;;;;;11.02;9.68;;;23.00;99.90;;;;;;5037795;28;20207;-78
2021/06/13 06:52:25;;;;;;;10.93;9.93;;;23.20;99.90;;;;;;5045453;28;20202;-78
2021/06/13 06:54:53;;;;;;;10.02;9.13;;;23.10;99.90;;;;;;5040845;28;20218;-78
2021/06/13 06:57:20;;;;;;;12.23;10.93;;;23.10;99.90;;;;;;5049975;28;20632;-79
2021/06/13 06:59:47;;;;;;;33.05;10.30;;;23.40;99.90;;;;;;5050579;28;20207;-79
2021/06/13 07:02:14;;;;;;;11.80;10.73;;;23.30;99.90;;;;;;5030210;28;20261;-75
2021/06/13 07:04:41;;;;;;;11.57;10.48;;;23.40;99.90;;;;;;5040433;28;20257;-76
2021/06/13 07:07:08;;;;;;;10.90;9.90;;;23.50;99.90;;;;;;5030944;28;20212;-76
2021/06/13 07:09:36;;;;;;;10.38;9.40;;;23.60;99.90;;;;;;5028864;28;20671;-76
2021/06/13 07:12:04;;;;;;;10.57;9.57;;;23.70;99.90;;;;;;5036200;28;20210;-78
2021/06/13 07:14:31;;;;;;;11.55;10.07;;;23.80;99.90;;;;;;5040020;28;20289;-78
2021/06/13 07:16:58;;;;;;;12.70;9.43;;;23.80;99.90;;;;;;5028057;28;20686;-77
2021/06/13 07:19:25;;;;;;;11.05;10.05;;;23.80;99.90;;;;;;5036031;28;20257;-76
2021/06/13 07:21:52;;;;;;;10.55;9.45;;;23.80;99.90;;;;;;5031861;28;20680;-77
2021/06/13 07:24:19;;;;;;;11.20;10.27;;;24.00;99.90;;;;;;5038920;28;20636;-78
2021/06/13 07:26:47;;;;;;;10.35;9.07;;;24.10;99.90;;;;;;5031982;28;20268;-74
2021/06/13 07:29:14;;;;;;;10.27;9.35;;;24.30;99.90;;;;;;5029342;28;20666;-76
2021/06/13 07:31:41;;;;;;;10.20;9.32;;;24.70;99.90;;;;;;5031175;28;20576;-75
2021/06/13 07:34:08;;;;;;;11.15;10.25;;;25.30;99.90;;;;;;5037828;28;20203;-75
2021/06/13 07:36:36;;;;;;;10.82;9.25;;;25.10;99.90;;;;;;5036576;28;20285;-74
2021/06/13 07:39:04;;;;;;;10.55;9.57;;;25.10;99.90;;;;;;5040481;28;20202;-73
2021/06/13 07:41:35;;;;;;;10.38;9.48;;;25.60;99.90;;;;;;5027693;28;20406;-73
2021/06/13 07:44:04;;;;;;;13.02;10.45;;;28.70;99.90;;;;;;5033985;28;20207;-75
2021/06/13 07:46:35;;;;;;;10.20;9.30;;;28.90;99.90;;;;;;5034169;28;20223;-79
2021/06/13 07:49:02;;;;;;;9.52;8.70;;;27.90;99.90;;;;;;5038867;28;20195;-75
2021/06/13 07:51:29;;;;;;;11.48;9.45;;;27.40;99.90;;;;;;5032536;28;20670;-75
2021/06/13 07:53:56;;;;;;;9.43;8.63;;;26.60;99.90;;;;;;5028227;28;20203;-75
2021/06/13 07:56:23;;;;;;;8.95;8.15;;;26.90;99.90;;;;;;5037775;28;20283;-75
2021/06/13 07:58:50;;;;;;;8.15;7.55;;;27.90;99.90;;;;;;5042872;28;20626;-76
2021/06/13 08:01:18;;;;;;;9.13;8.38;;;28.10;99.90;;;;;;5041346;28;20206;-73
2021/06/13 08:03:45;;;;;;;9.50;8.73;;;29.50;99.90;;;;;;5038972;28;20618;-76
2021/06/13 08:06:12;;;;;;;10.02;8.73;;;30.80;99.90;;;;;;5035005;28;20211;-76
2021/06/13 08:08:39;;;;;;;7.78;7.18;;;30.30;99.90;;;;;;5047770;28;20269;-76
2021/06/13 08:11:08;;;;;;;9.90;9.00;;;30.90;99.90;;;;;;5045222;28;20207;-76
2021/06/13 08:13:35;;;;;;;9.50;8.70;;;30.30;99.90;;;;;;5024721;28;20632;-76
2021/06/13 08:16:02;;;;;;;8.38;7.68;;;30.70;99.90;;;;;;5047042;28;20292;-78
2021/06/13 08:18:30;;;;;;;8.15;7.55;;;30.50;99.90;;;;;;5045834;28;20207;-77
2021/06/13 08:20:57;;;;;;;9.20;8.40;;;30.30;99.90;;;;;;5048153;28;20203;-76
2021/06/13 08:23:24;;;;;;;11.20;7.90;;;28.90;99.90;;;;;;5044437;28;20203;-78
2021/06/13 08:25:51;;;;;;;7.93;7.32;;;28.70;99.90;;;;;;5047627;28;20215;-77
2021/06/13 08:28:18;;;;;;;7.30;6.70;;;28.30;99.90;;;;;;5044929;28;20210;-77
2021/06/13 08:30:46;;;;;;;8.98;8.18;;;27.90;99.90;;;;;;5047523;28;20207;-77
2021/06/13 08:33:13;;;;;;;8.68;7.88;;;27.80;99.90;;;;;;5047066;28;20578;-77
2021/06/13 08:35:41;;;;;;;8.88;8.02;;;27.70;99.90;;;;;;5027534;28;20255;-76
2021/06/13 08:38:08;;;;;;;9.65;8.68;;;27.90;99.90;;;;;;5050091;28;20215;-76
2021/06/13 08:40:35;;;;;;;7.80;7.22;;;28.10;99.90;;;;;;5049432;28;20256;-74
2021/06/13 08:43:03;;;;;;;8.68;7.97;;;28.10;99.90;;;;;;5050813;28;20207;-76
2021/06/13 08:45:33;;;;;;;7.45;6.85;;;28.70;99.90;;;;;;5048458;28;20708;-77
2021/06/13 08:48:01;;;;;;;8.82;7.53;;;29.10;99.90;;;;;;5051325;28;20261;-76
2021/06/13 08:50:33;;;;;;;7.95;7.28;;;29.20;99.90;;;;;;5048298;28;20674;-76
2021/06/13 08:53:02;;;;;;;8.32;7.63;;;29.30;99.90;;;;;;5052963;28;20209;-75
2021/06/13 08:55:30;;;;;;;7.88;7.07;;;29.00;99.90;;;;;;5052743;28;20236;-77
2021/06/13 08:57:57;;;;;;;6.90;6.40;;;30.10;99.90;;;;;;5052822;28;20731;-78
2021/06/13 09:00:27;;;;;;;7.35;6.78;;;30.50;99.90;;;;;;5052633;28;20260;-76
2021/06/13 09:02:54;;;;;;;6.88;6.30;;;30.50;99.90;;;;;;5029448;28;20204;-76
2021/06/13 09:05:23;;;;;;;8.07;7.38;;;30.20;99.90;;;;;;5052334;28;20298;-76
2021/06/13 09:07:52;;;;;;;8.85;8.00;;;31.60;99.90;;;;;;5052406;28;20207;-76
2021/06/13 09:10:22;;;;;;;7.13;6.63;;;32.10;99.90;;;;;;5052131;28;20634;-78
2021/06/13 09:12:49;;;;;;;8.07;7.47;;;32.20;99.90;;;;;;5052753;28;20275;-77
2021/06/13 09:15:17;;;;;;;7.20;6.60;;;32.50;99.90;;;;;;5052064;28;20624;-76
2021/06/13 09:17:45;;;;;;;7.72;7.15;;;31.40;99.90;;;;;;5052705;28;20294;-78
2021/06/13 09:20:19;;;;;;;8.00;7.35;;;31.40;99.90;;;;;;5052019;28;20297;-79
2021/06/13 09:23:08;;;;;;;7.68;6.85;;;30.90;99.90;;;;;;5052413;28;20689;-78
2021/06/13 09:25:40;;;;;;;8.07;7.38;;;30.90;99.90;;;;;;5025993;28;20289;-77
2021/06/13 09:28:10;;;;;;;7.75;7.15;;;31.20;99.90;;;;;;5052232;28;20203;-77
2021/06/13 09:30:40;;;;;;;5.20;4.90;;;32.30;99.90;;;;;;5052496;28;20206;-78
2021/06/13 09:33:12;;;;;;;5.88;5.47;;;32.70;99.90;;;;;;5052441;28;20207;-77
2021/06/13 09:35:40;;;;;;;6.40;5.72;;;31.50;99.90;;;;;;5051946;28;20245;-77
2021/06/13 09:38:11;;;;;;;5.65;5.20;;;31.10;99.90;;;;;;5052415;28;20206;-77
2021/06/13 09:40:42;;;;;;;5.63;5.22;;;31.40;99.90;;;;;;5052075;28;20206;-79
2021/06/13 09:43:18;;;;;;;5.45;5.05;;;31.40;99.90;;;;;;5051564;28;20591;-77
2021/06/13 09:45:48;;;;;;;5.60;5.10;;;31.50;99.90;;;;;;5051852;28;20275;-78
2021/06/13 09:48:15;;;;;;;4.47;4.05;;;31.50;99.90;;;;;;5051561;28;20206;-77
2021/06/13 09:50:44;;;;;;;6.82;4.63;;;31.50;99.90;;;;;;5051347;28;20202;-78
2021/06/13 09:53:43;;;;;;;5.20;4.85;;;32.10;99.90;;;;;;5051445;28;20206;-78
2021/06/13 09:56:26;;;;;;;5.05;4.75;;;33.60;99.90;;;;;;5039560;28;20242;-77
2021/06/13 09:58:59;;;;;;;4.88;4.57;;;33.20;99.90;;;;;;5051875;28;20210;-78
2021/06/13 10:01:29;;;;;;;7.10;4.60;;;34.60;99.90;;;;;;5051140;28;20255;-78
2021/06/13 10:03:56;;;;;;;5.30;4.45;;;34.90;99.90;;;;;;5045192;28;20688;-78
2021/06/13 10:06:24;;;;;;;4.80;4.38;;;35.90;99.90;;;;;;5029775;28;20209;-82
2021/06/13 10:08:56;;;;;;;4.05;3.75;;;35.60;99.90;;;;;;5043546;28;20301;-79
2021/06/13 10:11:25;;;;;;;5.05;4.65;;;34.70;99.90;;;;;;5036255;28;20202;-77
2021/06/13 10:13:53;;;;;;;3.95;3.67;;;35.20;99.90;;;;;;5048094;28;20228;-79
2021/06/13 10:16:44;;;;;;;4.13;3.72;;;38.10;99.90;;;;;;5042550;28;20277;-79
2021/06/13 10:19:14;;;;;;;4.35;4.05;;;38.00;99.90;;;;;;5044545;28;20214;-79
2021/06/13 10:21:44;;;;;;;4.85;4.45;;;40.80;99.90;;;;;;5028941;28;20303;-80
2021/06/13 10:24:13;;;;;;;4.03;3.67;;;43.60;99.90;;;;;;5026510;28;20214;-81
2021/06/13 10:26:44;;;;;;;3.85;3.63;;;43.90;99.90;;;;;;5031192;28;20222;-81
2021/06/13 10:29:13;;;;;;;3.28;3.00;;;41.20;99.90;;;;;;5031056;28;20670;-79
2021/06/13 10:31:41;;;;;;;4.40;4.05;;;38.90;99.90;;;;;;5031472;28;20302;-81
2021/06/13 10:34:09;;;;;;;4.03;3.72;;;40.80;99.90;;;;;;5030955;28;20245;-79
2021/06/13 10:36:40;;;;;;;4.90;3.58;;;39.60;99.90;;;;;;5031613;28;20242;-80
2021/06/13 10:39:09;;;;;;;4.15;3.90;;;35.30;99.90;;;;;;5017887;28;20215;-80
2021/06/13 10:41:36;;;;;;;3.53;3.33;;;33.50;99.90;;;;;;5031568;28;20641;-79
2021/06/13 10:44:07;;;;;;;3.72;3.42;;;32.50;99.90;;;;;;5031607;28;20211;-80
2021/06/13 10:46:37;;;;;;;5.68;3.97;;;32.20;99.90;;;;;;5031654;28;20211;-80
2021/06/13 10:49:05;;;;;;;4.50;4.10;;;32.00;99.90;;;;;;5031772;28;20233;-80
2021/06/13 10:51:35;;;;;;;4.43;4.03;;;32.10;99.90;;;;;;5037532;28;20675;-79
2021/06/13 10:54:31;;;;;;;3.20;2.90;;;31.90;99.90;;;;;;5051176;28;20517;-80
2021/06/13 10:57:25;;;;;;;4.93;3.35;;;32.00;99.90;;;;;;4994776;28;20289;-80
2021/06/13 10:59:55;;;;;;;5.82;5.32;;;31.90;99.90;;;;;;5050493;28;20700;-79
2021/06/13 11:02:24;;;;;;;4.88;4.40;;;32.10;99.90;;;;;;5050041;28;20661;-78
2021/06/13 11:04:53;;;;;;;4.18;3.78;;;32.00;99.90;;;;;;5050406;28;20199;-78
2021/06/13 11:07:57;;;;;;;3.60;3.30;;;32.00;99.90;;;;;;5050147;28;20214;-76
2021/06/13 11:10:29;;;;;;;5.70;4.63;;;31.70;99.90;;;;;;5028607;28;20318;-78
2021/06/13 11:13:06;;;;;;;3.95;3.55;;;32.00;99.90;;;;;;5050259;28;20681;-78
2021/06/13 11:15:53;;;;;;;4.25;3.95;;;32.10;99.90;;;;;;5050625;28;20229;-79
2021/06/13 11:18:23;;;;;;;3.75;3.45;;;31.80;99.90;;;;;;5049769;28;20202;-78
2021/06/13 11:20:54;;;;;;;3.53;3.33;;;32.00;99.90;;;;;;5050721;28;20668;-78
2021/06/13 11:23:50;;;;;;;3.90;3.60;;;32.10;99.90;;;;;;5049921;28;20691;-79
2021/06/13 11:26:37;;;;;;;4.32;3.92;;;32.30;99.90;;;;;;5050146;28;20214;-78
2021/06/13 11:29:07;;;;;;;3.88;3.60;;;32.50;99.90;;;;;;5026354;28;20703;-80
2021/06/13 11:31:35;;;;;;;4.47;4.18;;;32.50;99.90;;;;;;5050129;28;20264;-78
2021/06/13 11:34:10;;;;;;;3.92;3.67;;;32.40;99.90;;;;;;5050703;28;20250;-80
2021/06/13 11:36:41;;;;;;;3.75;3.55;;;32.10;99.90;;;;;;5050273;28;20229;-79
2021/06/13 11:39:22;;;;;;;4.07;3.78;;;31.50;99.90;;;;;;5023322;28;20206;-79
2021/06/13 11:41:50;;;;;;;3.22;3.00;;;31.70;99.90;;;;;;5050263;28;20213;-78
2021/06/13 11:44:42;;;;;;;4.68;4.05;;;31.90;99.90;;;;;;5049808;28;20217;-79
2021/06/13 11:47:32;;;;;;;3.65;3.30;;;31.70;99.90;;;;;;5049368;28;20210;-79
2021/06/13 11:50:00;;;;;;;3.83;3.53;;;31.60;99.90;;;;;;5050306;28;20293;-80
2021/06/13 11:53:00;;;;;;;4.35;3.22;;;32.10;99.90;;;;;;5049364;28;21050;-81
2021/06/13 11:56:00;;;;;;;3.75;3.53;;;32.00;99.90;;;;;;5049811;28;20210;-79
2021/06/13 11:58:27;;;;;;;3.35;3.08;;;32.30;99.90;;;;;;5038165;28;20264;-79
2021/06/13 12:00:59;;;;;;;4.55;3.30;;;32.50;99.90;;;;;;5049830;28;20268;-79
2021/06/13 12:03:29;;;;;;;3.33;3.13;;;32.50;99.90;;;;;;5023200;28;20210;-78
2021/06/13 12:06:04;;;;;;;3.20;2.97;;;32.50;99.90;;;;;;5050338;28;20214;-77
2021/06/13 12:08:38;;;;;;;5.03;3.63;;;32.10;99.90;;;;;;5026067;28;20241;-78
2021/06/13 12:11:06;;;;;;;3.42;3.13;;;32.40;99.90;;;;;;5053893;28;20210;-78
2021/06/13 12:13:33;;;;;;;6.78;3.53;;;32.50;99.90;;;;;;5053790;28;20210;-78
2021/06/13 12:16:00;;;;;;;3.70;3.42;;;32.60;99.90;;;;;;5053689;28;20261;-78
2021/06/13 12:18:28;;;;;;;3.08;2.88;;;32.50;99.90;;;;;;5052984;28;20676;-79
2021/06/13 12:20:58;;;;;;;3.40;3.20;;;32.50;99.90;;;;;;5053602;28;20669;-78
2021/06/13 12:23:37;;;;;;;3.53;3.28;;;32.50;99.90;;;;;;5053079;28;20624;-81
2021/06/13 12:28:58;;;;;;;2.38;2.28;;;32.50;99.90;;;;;;5053191;28;20204;-81
2021/06/13 12:31:28;;;;;;;3.40;2.80;;;32.40;99.90;;;;;;5052072;28;20205;-81
2021/06/13 12:33:56;;;;;;;2.38;2.15;;;32.30;99.90;;;;;;5053286;28;20276;-80
2021/06/13 12:36:23;;;;;;;2.90;2.63;;;32.30;99.90;;;;;;5053014;28;20240;-86
2021/06/13 12:38:52;;;;;;;2.78;2.58;;;32.20;99.90;;;;;;5053323;28;20272;-79
2021/06/13 12:41:23;;;;;;;2.40;2.25;;;32.30;99.90;;;;;;5053040;28;20712;-81
2021/06/13 12:43:50;;;;;;;2.67;1.60;;;32.50;99.90;;;;;;5052906;28;20214;-82
2021/06/13 12:46:17;;;;;;;2.58;2.40;;;32.30;99.90;;;;;;5052919;28;20277;-81
2021/06/13 12:48:45;;;;;;;2.38;2.28;;;32.40;99.90;;;;;;5053377;28;20203;-87
2021/06/13 12:51:25;;;;;;;6.25;2.15;;;32.40;99.90;;;;;;5052577;28;20289;-80
2021/06/13 12:53:56;;;;;;;3.10;2.22;;;32.50;99.90;;;;;;5052977;28;20206;-81
2021/06/13 12:56:23;;;;;;;2.35;2.15;;;32.90;99.90;;;;;;5052233;28;20256;-79
2021/06/13 12:58:50;;;;;;;3.92;2.22;;;32.90;99.90;;;;;;5052744;28;20229;-78
2021/06/13 13:01:17;;;;;;;2.03;1.92;;;32.80;99.90;;;;;;5052461;28;20214;-80
2021/06/13 13:03:46;;;;;;;2.47;2.38;;;32.90;99.90;;;;;;5052747;28;20206;-78
2021/06/13 13:06:15;;;;;;;2.10;1.90;;;33.00;99.90;;;;;;5052449;28;20301;-83
2021/06/13 13:08:43;;;;;;;2.67;2.47;;;32.70;99.90;;;;;;5048090;28;20206;-80
2021/06/13 13:11:12;;;;;;;2.83;2.63;;;32.70;99.90;;;;;;5042591;28;20241;-79
2021/06/13 13:13:42;;;;;;;2.97;2.30;;;32.70;99.90;;;;;;5052630;28;20202;-79
2021/06/13 13:16:23;;;;;;;2.22;2.13;;;32.80;99.90;;;;;;5052075;28;20628;-80
2021/06/13 13:18:50;;;;;;;2.42;2.33;;;32.90;99.90;;;;;;5027401;28;20240;-80
2021/06/13 13:21:30;;;;;;;4.57;2.58;;;32.90;99.90;;;;;;5052421;28;20252;-79
2021/06/13 13:23:57;;;;;;;2.72;2.53;;;32.90;99.90;;;;;;5027781;28;20201;-80
2021/06/13 13:26:25;;;;;;;2.67;2.47;;;32.90;99.90;;;;;;5051943;28;20297;-78
2021/06/13 13:28:53;;;;;;;2.65;2.45;;;32.50;99.90;;;;;;5051961;28;20628;-79
2021/06/13 13:31:22;;;;;;;2.90;2.45;;;32.70;99.90;;;;;;5052120;28;20210;-79
2021/06/13 13:33:57;;;;;;;4.40;2.20;;;33.10;99.90;;;;;;5052105;28;20202;-79
2021/06/13 13:36:44;;;;;;;2.08;1.98;;;33.10;99.90;;;;;;5039720;28;20663;-79
2021/06/13 13:39:21;;;;;;;2.10;1.90;;;32.90;99.90;;;;;;5038866;28;20202;-79
2021/06/13 13:41:56;;;;;;;2.67;2.47;;;33.10;99.90;;;;;;5051982;28;20206;-80
2021/06/13 13:44:24;;;;;;;2.08;1.98;;;33.10;99.90;;;;;;5051653;28;20209;-79
2021/06/13 13:47:01;;;;;;;2.65;2.47;;;32.90;99.90;;;;;;5051810;28;20209;-80
2021/06/13 13:49:28;;;;;;;2.85;2.65;;;33.00;99.90;;;;;;5051510;28;21029;-80
2021/06/13 13:51:57;;;;;;;3.10;2.20;;;33.00;99.90;;;;;;5051876;28;20626;-78
2021/06/13 13:54:27;;;;;;;2.78;2.58;;;32.80;99.90;;;;;;5051404;28;20206;-79
2021/06/13 13:56:56;;;;;;;2.92;2.67;;;32.80;99.90;;;;;;5051760;28;20248;-80
2021/06/13 13:59:23;;;;;;;3.20;2.30;;;33.00;99.90;;;;;;5051566;28;20233;-80
2021/06/13 14:01:51;;;;;;;2.92;2.17;;;33.10;99.90;;;;;;5051688;28;20227;-81
2021/06/13 14:04:19;;;;;;;3.45;2.92;;;33.10;99.90;;;;;;5051265;28;20206;-82
2021/06/13 14:06:46;;;;;;;2.05;1.95;;;33.10;99.90;;;;;;5052004;28;20217;-78
2021/06/13 14:09:14;;;;;;;2.28;2.10;;;33.00;99.90;;;;;;5051517;28;20218;-83
2021/06/13 14:11:41;;;;;;;2.60;2.22;;;33.30;99.90;;;;;;5051084;28;20210;-78
2021/06/13 14:14:08;;;;;;;3.50;2.25;;;33.40;99.90;;;;;;5051088;28;20293;-80
2021/06/13 14:16:36;;;;;;;2.47;2.35;;;33.30;99.90;;;;;;5035998;28;20230;-78
2021/06/13 14:19:03;;;;;;;2.75;2.55;;;33.10;99.90;;;;;;5034716;28;20203;-78
2021/06/13 14:21:30;;;;;;;2.90;2.70;;;33.10;99.90;;;;;;5031100;28;20247;-78
2021/06/13 14:23:57;;;;;;;2.75;2.60;;;33.10;99.90;;;;;;5032636;28;20256;-81
2021/06/13 14:26:26;;;;;;;2.60;2.40;;;33.10;99.90;;;;;;5038288;28;20214;-79
2021/06/13 14:28:53;;;;;;;2.90;2.67;;;33.20;99.90;;;;;;5026935;28;20661;-80
2021/06/13 14:31:21;;;;;;;2.95;2.75;;;33.20;99.90;;;;;;5043325;28;20214;-78
2021/06/13 14:33:48;;;;;;;2.90;2.67;;;33.30;99.90;;;;;;5044825;28;20202;-84
2021/06/13 14:36:15;;;;;;;2.88;2.67;;;33.30;99.90;;;;;;5032974;28;20207;-79
2021/06/13 14:38:42;;;;;;;2.60;2.40;;;33.40;99.90;;;;;;5042096;28;20214;-78
2021/06/13 14:41:09;;;;;;;2.50;2.30;;;33.40;99.90;;;;;;5030184;28;20204;-79
2021/06/13 14:43:38;;;;;;;2.58;2.38;;;33.00;99.90;;;;;;5038997;28;20276;-78
2021/06/13 14:46:05;;;;;;;2.58;2.38;;;33.20;99.90;;;;;;5042741;28;20210;-78
2021/06/13 14:48:33;;;;;;;2.67;2.47;;;33.20;99.90;;;;;;5036999;28;20219;-78
2021/06/13 14:51:00;;;;;;;2.78;2.58;;;33.10;99.90;;;;;;5036855;28;20198;-79
2021/06/13 14:53:27;;;;;;;2.63;2.42;;;33.20;99.90;;;;;;5050040;28;20206;-80
2021/06/13 14:55:54;;;;;;;2.05;1.95;;;33.20;99.90;;;;;;5038158;28;20215;-81
2021/06/13 14:58:21;;;;;;;2.47;2.17;;;33.10;99.90;;;;;;5035983;28;20234;-79
2021/06/13 15:00:51;;;;;;;2.45;2.30;;;33.20;99.90;;;;;;5034528;28;20214;-78
2021/06/13 15:03:19;;;;;;;2.40;2.15;;;33.20;99.90;;;;;;5048118;28;20209;-78
2021/06/13 15:05:47;;;;;;;3.78;2.15;;;33.20;99.90;;;;;;5031888;28;20757;-77
2021/06/13 15:08:14;;;;;;;3.30;2.60;;;33.20;99.90;;;;;;5044788;28;20206;-78
2021/06/13 15:10:42;;;;;;;2.83;2.60;;;33.30;99.90;;;;;;5041954;28;20212;-78
2021/06/13 15:13:09;;;;;;;2.53;2.33;;;33.20;99.90;;;;;;5037013;28;20202;-78
2021/06/13 15:15:38;;;;;;;2.92;2.20;;;33.30;99.90;;;;;;5046163;28;20634;-79
2021/06/13 15:18:08;;;;;;;2.53;2.33;;;33.30;99.90;;;;;;5039131;28;20261;-76
2021/06/13 15:20:36;;;;;;;2.22;2.03;;;33.30;99.90;;;;;;5045583;28;20210;-79
2021/06/13 15:23:04;;;;;;;2.40;2.30;;;33.40;99.90;;;;;;5040175;28;20203;-77
2021/06/13 15:25:31;;;;;;;3.15;2.30;;;33.30;99.90;;;;;;5039468;28;20807;-81
2021/06/13 15:27:58;;;;;;;2.33;2.10;;;33.20;99.90;;;;;;5031344;28;20210;-79
2021/06/13 15:30:25;;;;;;;2.95;2.65;;;33.20;99.90;;;;;;5036225;28;21194;-84
2021/06/13 15:32:54;;;;;;;2.10;2.00;;;33.20;99.90;;;;;;5036472;28;20203;-84
2021/06/13 15:35:23;;;;;;;2.40;2.30;;;33.20;99.90;;;;;;5035772;28;20202;-79
2021/06/13 15:37:54;;;;;;;2.25;2.15;;;33.20;99.90;;;;;;5036530;28;20234;-77
2021/06/13 15:40:21;;;;;;;2.33;1.98;;;33.20;99.90;;;;;;5037347;28;20214;-78
2021/06/13 15:42:48;;;;;;;2.97;2.28;;;33.20;99.90;;;;;;5039856;28;20233;-85
2021/06/13 15:45:17;;;;;;;2.00;1.83;;;33.10;99.90;;;;;;5038851;28;20639;-83
2021/06/13 15:47:44;;;;;;;4.53;1.90;;;33.00;99.90;;;;;;5039206;28;20629;-78
2021/06/13 15:50:14;;;;;;;2.35;2.15;;;33.00;99.90;;;;;;5036638;28;20238;-86
2021/06/13 15:52:43;;;;;;;3.13;2.15;;;33.00;99.90;;;;;;5049704;28;20215;-78